Time;durP1;ratioP1;P1;durP2;ratioP2;P2;SDS_P1;SDS_P2;PMS_P1;PMS_P2;Temp;Humidity;BMP_temperature;BMP_pressure;BME280_temperature;BME280_humidity;BME280_pressure;Samples;Min_cycle;Max_cycle;Signal;HPM_P1;HPM_P2
2023/10/10 00:01:17;;;;;;;6.50;4.60;;;;;;;25.13;43.24;99987.03;5092620;28;20492;-77
2023/10/10 00:03:45;;;;;;;8.15;4.85;;;;;;;25.14;43.26;99983.38;5092549;28;20059;-77
2023/10/10 00:06:13;;;;;;;6.35;4.68;;;;;;;25.12;43.14;99979.97;5092855;28;20020;-78
2023/10/10 00:08:40;;;;;;;6.95;4.72;;;;;;;25.11;43.21;99983.63;5091321;28;20423;-77
2023/10/10 00:11:14;;;;;;;7.57;5.05;;;;;;;25.10;43.27;99981.91;5092631;28;20360;-77
2023/10/10 00:13:43;;;;;;;7.13;4.63;;;;;;;25.10;43.19;99981.91;5092532;28;20047;-77
2023/10/10 00:16:19;;;;;;;7.80;5.00;;;;;;;25.07;43.27;99979.44;5091265;28;20123;-77
2023/10/10 00:18:46;;;;;;;8.25;4.50;;;;;;;25.06;43.02;99980.41;5092429;28;20036;-77
2023/10/10 00:21:22;;;;;;;8.05;5.20;;;;;;;25.05;43.35;99986.72;5092659;28;20365;-77
2023/10/10 00:23:48;;;;;;;8.32;4.70;;;;;;;25.04;43.31;99977.00;5092481;28;20036;-77
2023/10/10 00:26:20;;;;;;;9.10;5.13;;;;;;;25.03;43.03;99983.31;5092586;28;20028;-77
2023/10/10 00:28:51;;;;;;;8.25;5.10;;;;;;;25.00;43.07;99981.72;5092679;28;20099;-78
2023/10/10 00:31:20;;;;;;;7.97;4.90;;;;;;;24.99;43.11;99984.47;5092040;28;20460;-77
2023/10/10 00:33:49;;;;;;;9.40;5.18;;;;;;;24.99;43.09;99985.31;5092481;28;20066;-77
2023/10/10 00:36:21;;;;;;;8.30;4.95;;;;;;;24.99;43.12;99987.16;5092413;28;20031;-78
2023/10/10 00:38:50;;;;;;;7.50;4.65;;;;;;;24.98;43.13;99988.94;5092133;28;20068;-76
2023/10/10 00:41:16;;;;;;;7.95;5.20;;;;;;;24.97;43.10;99981.03;5092289;28;20120;-78
2023/10/10 00:43:42;;;;;;;7.13;5.03;;;;;;;24.98;43.05;99982.78;5092531;28;20066;-77
2023/10/10 00:46:11;;;;;;;7.43;4.78;;;;;;;24.96;43.25;99985.53;5092252;28;20020;-77
2023/10/10 00:48:38;;;;;;;8.68;5.25;;;;;;;24.96;43.06;99987.34;5092270;28;20028;-77
2023/10/10 00:51:11;;;;;;;8.23;5.13;;;;;;;24.96;43.04;99979.34;5092422;28;20034;-77
2023/10/10 00:53:40;;;;;;;8.73;5.60;;;;;;;24.94;43.32;99976.81;5092307;28;20074;-77
2023/10/10 00:56:07;;;;;;;11.63;5.20;;;;;;;24.94;43.54;99980.31;5092258;28;20035;-77
2023/10/10 00:58:40;;;;;;;9.18;5.22;;;;;;;24.94;43.20;99977.63;5092140;28;20036;-78
2023/10/10 01:01:14;;;;;;;7.90;4.70;;;;;;;24.92;43.54;99974.22;5091775;28;20024;-78
2023/10/10 01:03:45;;;;;;;8.98;5.35;;;;;;;24.91;43.29;99975.19;5092130;28;20261;-77
2023/10/10 01:06:31;;;;;;;7.38;4.93;;;;;;;24.92;43.24;99978.69;5093544;28;20028;-77
2023/10/10 01:09:55;;;;;;;8.80;5.10;;;;;;;24.89;43.32;99969.09;5096225;28;20032;-76
2023/10/10 01:11:43;;;;;;;10.38;6.05;;;;;;;24.88;43.20;99967.38;5088534;28;20044;-77
2023/10/10 01:14:09;;;;;;;8.00;5.25;;;;;;;24.89;43.67;99971.75;5096015;28;20541;-76
2023/10/10 01:16:34;;;;;;;9.32;5.70;;;;;;;24.89;43.55;99965.59;5095741;28;20496;-77
2023/10/10 01:19:00;;;;;;;8.55;5.10;;;;;;;24.88;43.20;99963.84;5096153;28;20391;-77
2023/10/10 01:21:37;;;;;;;9.30;5.90;;;;;;;24.88;43.29;99959.38;5094722;28;20026;-77
2023/10/10 01:24:11;;;;;;;9.25;5.78;;;;;;;24.86;43.31;99963.97;5095855;28;20036;-77
2023/10/10 01:26:38;;;;;;;9.00;5.45;;;;;;;24.86;43.63;99968.47;5095954;28;20032;-77
2023/10/10 01:29:21;;;;;;;8.98;5.90;;;;;;;24.85;43.31;99962.28;5095349;28;20413;-77
2023/10/10 01:31:48;;;;;;;7.60;5.03;;;;;;;24.83;43.50;99969.53;5075470;28;20028;-77
2023/10/10 01:34:30;;;;;;;9.05;5.68;;;;;;;24.83;43.20;99964.19;5080692;28;20388;-77
2023/10/10 01:37:02;;;;;;;9.13;6.10;;;;;;;24.83;43.34;99958.84;5097088;28;20417;-77
2023/10/10 01:39:47;;;;;;;8.23;5.35;;;;;;;24.82;43.35;99962.47;5085589;28;20500;-77
2023/10/10 01:42:13;;;;;;;7.65;4.68;;;;;;;24.81;43.43;99958.13;5075322;28;20032;-77
2023/10/10 01:44:39;;;;;;;8.93;5.40;;;;;;;24.81;43.26;99966.13;5083411;28;20021;-77
2023/10/10 01:47:18;;;;;;;8.40;5.47;;;;;;;24.80;43.62;99965.22;5095357;28;20031;-77
2023/10/10 01:49:44;;;;;;;8.68;5.40;;;;;;;24.79;43.37;99958.19;5095506;28;20024;-76
2023/10/10 01:52:12;;;;;;;8.48;4.70;;;;;;;24.78;43.48;99955.59;5094159;28;20480;-76
2023/10/10 01:54:41;;;;;;;9.70;5.50;;;;;;;24.79;43.49;99957.34;5095398;28;20115;-77
2023/10/10 01:57:07;;;;;;;8.57;5.65;;;;;;;24.78;43.53;99955.59;5095357;28;20123;-77
2023/10/10 01:59:38;;;;;;;8.60;5.35;;;;;;;24.78;43.26;99960.94;5095004;28;20036;-77
2023/10/10 02:02:10;;;;;;;7.88;4.88;;;;;;;24.76;43.39;99949.53;5095211;28;20035;-78
2023/10/10 02:04:36;;;;;;;9.13;5.05;;;;;;;24.76;43.51;99953.06;5094871;28;20048;-77
2023/10/10 02:07:06;;;;;;;8.82;5.13;;;;;;;24.74;43.36;99956.81;5095341;28;20028;-76
2023/10/10 02:09:34;;;;;;;7.97;5.22;;;;;;;24.74;43.43;99949.63;5095351;28;20425;-77
2023/10/10 02:12:16;;;;;;;10.27;5.15;;;;;;;24.74;43.26;99949.63;5095252;28;20381;-77
2023/10/10 02:14:45;;;;;;;8.13;4.97;;;;;;;24.73;43.40;99952.41;5094546;28;20038;-77
2023/10/10 02:17:22;;;;;;;7.53;4.43;;;;;;;24.73;43.28;99947.06;5094847;28;20031;-77
2023/10/10 02:19:59;;;;;;;7.72;5.15;;;;;;;24.72;43.16;99950.69;5095101;28;20522;-77
2023/10/10 02:22:47;;;;;;;7.30;4.60;;;;;;;24.71;43.44;99946.31;5095042;28;20044;-77
2023/10/10 02:27:56;;;;;;;8.75;5.13;;;;;;;24.71;43.25;99938.31;5094673;28;20040;-77
2023/10/10 02:30:35;;;;;;;8.25;4.75;;;;;;;24.70;43.47;99944.63;5094855;28;20028;-77
2023/10/10 02:38:22;;;;;;;6.40;4.10;;;;;;;24.69;43.32;99945.59;5094403;28;20068;-77
2023/10/10 02:40:55;;;;;;;8.20;5.05;;;;;;;24.68;43.68;99944.72;5094510;28;20024;-77
2023/10/10 02:43:33;;;;;;;8.90;4.57;;;;;;;24.66;43.41;99944.81;5094111;28;20393;-76
2023/10/10 02:46:00;;;;;;;6.60;4.53;;;;;;;24.65;43.31;99945.78;5094132;28;20068;-76
2023/10/10 02:48:27;;;;;;;7.57;4.28;;;;;;;24.66;43.33;99942.16;5094458;28;20031;-78
2023/10/10 02:50:53;;;;;;;7.10;4.50;;;;;;;24.65;43.25;99944.94;5094599;28;20028;-77
2023/10/10 02:53:21;;;;;;;7.05;4.38;;;;;;;24.62;43.45;99943.34;5094296;28;20376;-77
2023/10/10 02:55:53;;;;;;;8.15;4.60;;;;;;;24.63;43.37;99939.72;5094329;28;20232;-77
2023/10/10 02:58:28;;;;;;;7.00;4.35;;;;;;;24.64;43.23;99941.41;5092521;28;20069;-77
2023/10/10 03:00:57;;;;;;;8.82;4.65;;;;;;;24.63;43.17;99942.38;5094211;28;20054;-77
2023/10/10 03:03:24;;;;;;;7.35;4.50;;;;;;;24.63;43.51;99934.38;5093885;28;20048;-77
2023/10/10 03:05:54;;;;;;;7.53;4.10;;;;;;;24.64;43.43;99943.22;5094004;28;20043;-76
2023/10/10 03:09:07;;;;;;;7.75;4.70;;;;;;;24.63;43.06;99947.72;5093835;28;20498;-76
2023/10/10 03:11:35;;;;;;;6.03;4.22;;;;;;;24.63;43.46;99941.50;5090471;28;20032;-77
2023/10/10 03:14:07;;;;;;;7.57;4.65;;;;;;;24.60;43.38;99947.91;5093768;28;20096;-77
2023/10/10 03:16:44;;;;;;;6.53;4.03;;;;;;;24.62;43.49;99948.69;5093846;28;20028;-77
2023/10/10 03:27:36;;;;;;;7.43;4.25;;;;;;;24.60;43.46;99939.06;5083415;28;20089;-78
2023/10/10 03:29:47;;;;;;;6.85;4.05;;;;;;;24.59;43.35;99946.22;5092844;28;20107;-77
2023/10/10 03:32:33;;;;;;;6.22;3.88;;;;;;;24.59;43.35;99946.22;5093419;28;20023;-77
2023/10/10 03:35:05;;;;;;;7.93;4.50;;;;;;;24.57;43.20;99948.13;5093399;28;20069;-77
2023/10/10 03:37:39;;;;;;;6.22;3.88;;;;;;;24.59;43.42;99948.88;5093466;28;20634;-77
2023/10/10 03:40:26;;;;;;;6.30;3.65;;;;;;;24.58;43.46;99943.63;5092855;28;20473;-78
2023/10/10 05:24:42;;;;;;;9.88;5.07;;;;;;;24.42;44.11;99933.19;5091666;28;20022;-76
2023/10/10 05:27:10;;;;;;;11.80;4.53;;;;;;;24.42;44.34;99931.38;5091949;28;20026;-76
2023/10/10 05:29:36;;;;;;;11.60;4.53;;;;;;;24.41;44.24;99929.69;5091765;28;20028;-76
2023/10/10 05:32:08;;;;;;;10.63;4.90;;;;;;;24.42;44.17;99933.19;5092121;28;20024;-77
2023/10/10 05:34:34;;;;;;;10.82;5.10;;;;;;;24.38;44.07;99930.75;5090864;28;20396;-76
2023/10/10 05:36:59;;;;;;;15.43;5.40;;;;;;;24.39;44.31;99924.44;5087320;28;20118;-77
2023/10/10 05:39:26;;;;;;;10.95;5.13;;;;;;;24.39;44.25;99935.09;5090303;28;20107;-78
2023/10/10 05:41:54;;;;;;;9.90;4.88;;;;;;;24.37;44.18;99926.34;5092012;28;20040;-78
2023/10/10 05:44:21;;;;;;;11.02;5.07;;;;;;;24.38;44.04;99928.06;5091211;28;20024;-77
2023/10/10 05:46:47;;;;;;;9.88;5.65;;;;;;;24.36;44.15;99940.63;5091832;28;20131;-77
2023/10/10 05:49:13;;;;;;;10.48;5.18;;;;;;;24.37;43.96;99934.34;5091614;28;20066;-78
2023/10/10 05:51:38;;;;;;;9.15;4.40;;;;;;;24.38;44.04;99941.41;5091717;28;20028;-78
2023/10/10 05:54:04;;;;;;;8.68;5.15;;;;;;;24.38;44.24;99944.06;5095090;28;20053;-78
2023/10/10 05:56:30;;;;;;;9.52;5.25;;;;;;;24.38;43.98;99938.72;5095589;28;20024;-77
2023/10/10 05:58:56;;;;;;;11.80;5.38;;;;;;;24.38;44.20;99933.41;5095407;28;20047;-76
2023/10/10 06:01:23;;;;;;;10.55;5.13;;;;;;;24.39;44.14;99940.44;5111382;28;20031;-77
2023/10/10 06:03:51;;;;;;;8.68;5.32;;;;;;;24.38;44.13;99938.72;5109096;28;20052;-77
2023/10/10 06:06:18;;;;;;;9.45;5.30;;;;;;;24.38;44.02;99938.72;5094481;28;20038;-78
2023/10/10 06:08:46;;;;;;;9.32;5.38;;;;;;;24.38;43.73;99940.53;5095044;28;20038;-77
2023/10/10 06:11:14;;;;;;;8.02;4.68;;;;;;;24.38;43.92;99938.72;5095070;28;20042;-77
2023/10/10 06:13:43;;;;;;;8.88;5.55;;;;;;;24.38;44.09;99944.06;5094891;28;20386;-78
2023/10/10 06:16:14;;;;;;;9.43;4.65;;;;;;;24.40;43.81;99938.59;5095001;28;20024;-78
2023/10/10 06:18:44;;;;;;;11.18;5.22;;;;;;;24.38;43.82;99944.06;5094979;28;20085;-78
2023/10/10 06:21:10;;;;;;;8.63;5.03;;;;;;;24.37;43.95;99947.66;5094654;28;20035;-77
2023/10/10 06:23:36;;;;;;;10.18;4.95;;;;;;;24.35;43.70;99948.75;5094920;28;20030;-77
2023/10/10 06:26:03;;;;;;;11.35;5.05;;;;;;;24.35;43.62;99949.59;5095078;28;20029;-78
2023/10/10 06:28:35;;;;;;;8.20;5.05;;;;;;;24.35;43.82;99954.94;5094657;28;20047;-77
2023/10/10 06:31:02;;;;;;;10.02;5.25;;;;;;;24.33;43.63;99956.88;5094841;28;20077;-78
2023/10/10 06:33:27;;;;;;;9.50;5.30;;;;;;;24.33;43.77;99951.53;5094366;28;20100;-78
2023/10/10 06:38:59;;;;;;;9.57;4.55;;;;;;;24.36;43.37;99953.97;5094582;28;20729;-77
2023/10/10 06:41:34;;;;;;;8.82;4.78;;;;;;;24.35;43.47;99960.25;5094700;28;20032;-78
2023/10/10 06:43:59;;;;;;;9.20;4.85;;;;;;;24.35;43.47;99960.25;5094265;28;20507;-77
2023/10/10 06:46:32;;;;;;;7.90;4.85;;;;;;;24.33;43.72;99958.66;5094678;28;20035;-77
2023/10/10 06:49:04;;;;;;;7.72;4.38;;;;;;;24.33;43.34;99967.53;5093996;28;20111;-77
2023/10/10 06:51:30;;;;;;;11.02;5.28;;;;;;;24.32;43.44;99965.81;5094333;28;20051;-77
2023/10/10 06:53:56;;;;;;;9.02;4.95;;;;;;;24.31;43.40;99961.41;5094444;28;20032;-78
2023/10/10 06:56:43;;;;;;;7.00;4.75;;;;;;;24.31;43.39;99963.25;5094199;28;20058;-77
2023/10/10 06:59:20;;;;;;;11.52;5.20;;;;;;;24.31;43.40;99958.75;5094043;28;20108;-78
2023/10/10 07:01:45;;;;;;;8.23;5.22;;;;;;;24.33;43.44;99962.19;5093976;28;20051;-78
2023/10/10 07:04:13;;;;;;;7.93;4.97;;;;;;;24.35;43.43;99960.25;5092450;28;20115;-77
2023/10/10 07:06:43;;;;;;;7.47;5.07;;;;;;;24.33;43.26;99962.19;5092965;28;20028;-78
2023/10/10 07:09:15;;;;;;;8.77;4.72;;;;;;;24.32;43.41;99965.81;5094093;28;20028;-78
2023/10/10 07:11:43;;;;;;;7.43;4.30;;;;;;;24.33;43.42;99964.84;5094059;28;20027;-78
2023/10/10 07:14:10;;;;;;;7.75;4.55;;;;;;;24.35;43.21;99973.59;5093772;28;20031;-78
2023/10/10 07:16:39;;;;;;;8.32;5.22;;;;;;;24.32;42.94;99972.97;5094057;28;20474;-78
2023/10/10 07:19:19;;;;;;;8.02;4.43;;;;;;;24.34;43.19;99973.69;5093566;28;20032;-78
2023/10/10 07:21:47;;;;;;;10.52;5.30;;;;;;;24.34;43.06;99973.69;5093719;28;20399;-77
2023/10/10 07:24:14;;;;;;;6.93;4.50;;;;;;;24.32;43.29;99976.50;5093822;28;20509;-77
2023/10/10 07:26:45;;;;;;;7.38;4.80;;;;;;;24.35;43.21;99970.94;5093583;28;20039;-77
2023/10/10 07:32:16;;;;;;;7.20;4.75;;;;;;;24.34;43.14;99969.22;5093472;28;20174;-78
2023/10/10 07:34:42;;;;;;;8.57;4.45;;;;;;;24.32;43.38;99971.16;5093636;28;20035;-77
2023/10/10 07:37:08;;;;;;;8.70;4.82;;;;;;;24.30;43.04;99973.06;5093523;28;20020;-78
2023/10/10 07:39:54;;;;;;;7.35;4.78;;;;;;;24.32;43.17;99976.50;5093211;28;20024;-78
2023/10/10 07:42:30;;;;;;;8.10;4.82;;;;;;;24.33;43.03;99972.88;5093466;28;20059;-77
2023/10/10 07:45:03;;;;;;;7.00;4.57;;;;;;;24.33;42.94;99978.19;5093223;28;20138;-79
2023/10/10 07:47:32;;;;;;;8.45;4.80;;;;;;;24.33;43.04;99972.88;5092981;28;20492;-77
2023/10/10 07:49:59;;;;;;;9.30;5.05;;;;;;;24.34;42.98;99979.03;5093314;28;20345;-78
2023/10/10 07:52:25;;;;;;;9.30;5.63;;;;;;;24.35;42.78;99981.59;5093244;28;20032;-78
2023/10/10 07:54:53;;;;;;;9.30;5.03;;;;;;;24.33;42.92;99983.53;5093200;28;20028;-77
2023/10/10 07:57:29;;;;;;;8.93;5.10;;;;;;;24.31;43.07;99985.41;5093136;28;20149;-78
2023/10/10 07:59:58;;;;;;;7.57;4.32;;;;;;;24.33;42.91;99988.00;5092901;28;20024;-78
2023/10/10 08:02:34;;;;;;;7.57;4.63;;;;;;;24.33;42.75;99982.66;5092444;28;20526;-79
2023/10/10 08:05:09;;;;;;;7.57;4.80;;;;;;;24.33;43.09;99983.53;5092685;28;20535;-78
2023/10/10 08:07:35;;;;;;;7.97;4.70;;;;;;;24.31;43.20;99985.41;5092982;28;20024;-78
2023/10/10 08:10:29;;;;;;;9.77;4.78;;;;;;;24.30;43.04;99982.88;5092915;28;20073;-78
2023/10/10 08:12:56;;;;;;;7.15;4.43;;;;;;;24.28;42.99;99988.31;5092838;28;20020;-78
2023/10/10 08:15:25;;;;;;;7.68;4.88;;;;;;;24.27;43.10;99990.09;5092090;28;20115;-79
2023/10/10 08:17:52;;;;;;;6.57;4.45;;;;;;;24.29;43.30;99991.81;5092615;28;20089;-78
2023/10/10 08:20:34;;;;;;;8.30;4.45;;;;;;;24.30;43.20;99989.06;5092644;28;20017;-79
2023/10/10 08:23:03;;;;;;;9.00;4.95;;;;;;;24.30;43.14;99997.06;5092831;28;20442;-80
2023/10/10 08:25:29;;;;;;;8.45;4.60;;;;;;;24.29;43.22;100000.69;5092736;28;20024;-79
2023/10/10 08:27:58;;;;;;;6.97;4.53;;;;;;;24.33;42.79;99988.00;5092435;28;20047;-78
2023/10/10 08:30:28;;;;;;;8.70;4.68;;;;;;;24.29;42.99;99998.00;5092337;28;20016;-77
2023/10/10 08:32:55;;;;;;;7.35;4.50;;;;;;;24.30;43.08;100002.38;5092397;28;20103;-80
2023/10/10 08:35:23;;;;;;;9.13;4.80;;;;;;;24.26;43.14;100001.75;5092538;28;20024;-78
2023/10/10 08:37:50;;;;;;;7.80;4.68;;;;;;;24.25;43.04;99991.16;5092217;28;20396;-80
2023/10/10 08:40:23;;;;;;;9.18;4.97;;;;;;;24.26;43.37;99992.91;5092561;28;20032;-78
2023/10/10 08:42:52;;;;;;;9.68;4.45;;;;;;;24.26;43.35;99983.06;5092299;28;20519;-79
2023/10/10 08:45:22;;;;;;;7.53;4.63;;;;;;;24.25;43.25;99985.84;5092142;28;20128;-79
2023/10/10 08:48:01;;;;;;;9.10;4.90;;;;;;;24.26;43.11;99987.56;5092539;28;20055;-78
2023/10/10 08:50:28;;;;;;;7.45;4.95;;;;;;;24.24;43.25;99989.47;5092372;28;20032;-79
2023/10/10 08:52:54;;;;;;;7.25;4.75;;;;;;;24.24;43.27;99978.78;5092297;28;20031;-78
2023/10/10 08:55:27;;;;;;;9.30;4.55;;;;;;;24.25;43.24;99986.69;5092216;28;20400;-79
2023/10/10 08:57:55;;;;;;;7.20;4.38;;;;;;;24.26;43.16;99987.56;5092186;28;20587;-79
2023/10/10 09:00:21;;;;;;;7.75;4.40;;;;;;;24.24;43.27;99987.66;5091863;28;20024;-78
2023/10/10 09:02:49;;;;;;;7.25;4.75;;;;;;;24.25;43.12;99996.50;5092345;28;20068;-78
2023/10/10 09:05:15;;;;;;;8.73;4.38;;;;;;;24.26;43.40;99987.56;5091992;28;20055;-78
2023/10/10 09:07:43;;;;;;;7.68;4.60;;;;;;;24.27;43.10;99986.59;5092344;28;20484;-78
2023/10/10 09:10:14;;;;;;;8.00;4.20;;;;;;;24.26;43.35;99991.06;5092174;28;20035;-79
2023/10/10 09:12:53;;;;;;;9.30;4.95;;;;;;;24.25;43.26;99992.03;5092235;28;20077;-78
2023/10/10 09:15:19;;;;;;;7.13;4.50;;;;;;;24.25;43.39;99985.84;5092017;28;20379;-78
2023/10/10 09:17:46;;;;;;;7.55;4.43;;;;;;;24.27;43.19;99983.94;5092075;28;20020;-78
2023/10/10 09:20:28;;;;;;;7.45;4.78;;;;;;;24.27;43.05;99989.28;5091973;28;20104;-79
2023/10/10 09:22:58;;;;;;;8.02;4.50;;;;;;;24.29;43.24;99992.69;5092170;28;20114;-79
2023/10/10 09:25:31;;;;;;;8.05;4.47;;;;;;;24.26;43.38;99987.56;5092176;28;20020;-78
2023/10/10 09:28:04;;;;;;;7.28;4.82;;;;;;;24.26;43.44;99984.91;5094131;28;20510;-78
2023/10/10 09:30:34;;;;;;;6.07;3.95;;;;;;;24.27;43.40;99995.44;5095756;28;20107;-78
2023/10/10 09:35:53;;;;;;;7.75;4.93;;;;;;;24.30;43.23;99989.06;5095943;28;20160;-78
2023/10/10 09:38:26;;;;;;;8.13;4.53;;;;;;;24.29;43.15;99984.69;5095630;28;20024;-78
2023/10/10 09:41:14;;;;;;;7.50;4.57;;;;;;;24.30;43.37;99983.72;5095711;28;20031;-78
2023/10/10 09:43:49;;;;;;;7.55;4.85;;;;;;;24.31;43.46;99984.59;5095152;28;20028;-78
2023/10/10 09:46:25;;;;;;;7.72;4.65;;;;;;;24.31;43.18;99985.41;5095769;28;20441;-78
2023/10/10 09:49:31;;;;;;;7.82;4.28;;;;;;;24.32;43.26;99980.97;5095404;28;20024;-78
2023/10/10 09:54:30;;;;;;;7.95;4.47;;;;;;;24.33;43.52;99980.88;5115798;28;20031;-80
2023/10/10 09:56:58;;;;;;;9.13;4.72;;;;;;;24.36;43.44;99980.63;5115665;28;20019;-78
2023/10/10 09:59:28;;;;;;;8.40;4.30;;;;;;;24.35;43.70;99978.94;5101073;28;20038;-79
2023/10/10 10:02:00;;;;;;;9.38;4.72;;;;;;;24.38;43.52;99976.06;5095395;28;20388;-78
2023/10/10 10:04:36;;;;;;;8.02;5.13;;;;;;;24.39;43.48;99968.91;5095117;28;20093;-78
2023/10/10 10:07:27;;;;;;;7.38;4.57;;;;;;;24.38;43.25;99969.88;5095254;28;20141;-79
2023/10/10 10:10:16;;;;;;;9.90;4.97;;;;;;;24.43;43.49;99969.56;5095030;28;20028;-78
2023/10/10 10:12:53;;;;;;;6.90;4.20;;;;;;;24.42;43.43;99965.19;5095000;28;20028;-78
2023/10/10 10:15:48;;;;;;;7.78;4.47;;;;;;;24.43;43.33;99956.22;5094777;28;20469;-80
2023/10/10 10:18:26;;;;;;;9.32;4.63;;;;;;;24.45;43.54;99959.66;5095062;28;20024;-80
2023/10/10 10:21:18;;;;;;;7.45;4.88;;;;;;;24.44;43.38;99960.63;5095117;28;20480;-78
2023/10/10 10:23:46;;;;;;;8.77;4.30;;;;;;;24.45;43.54;99960.50;5095018;28;20039;-78
2023/10/10 10:26:22;;;;;;;8.88;5.10;;;;;;;24.46;43.28;99966.69;5094553;28;20024;-79
2023/10/10 10:28:56;;;;;;;9.10;4.63;;;;;;;24.47;43.53;99960.41;5094856;28;20073;-78
2023/10/10 10:31:28;;;;;;;8.43;4.80;;;;;;;24.49;43.45;99961.13;5094452;28;20020;-79
2023/10/10 10:34:05;;;;;;;7.93;4.65;;;;;;;24.48;43.30;99960.28;5091423;28;20046;-78
2023/10/10 10:36:54;;;;;;;8.63;4.95;;;;;;;24.49;43.58;99958.47;5094693;28;20036;-78
2023/10/10 10:39:33;;;;;;;9.18;4.78;;;;;;;24.50;43.57;99957.53;5094148;28;20034;-79
2023/10/10 10:41:59;;;;;;;7.45;4.72;;;;;;;24.49;43.43;99951.34;5094180;28;20404;-80
2023/10/10 10:44:59;;;;;;;6.43;4.53;;;;;;;24.51;43.37;99953.91;5094542;28;20035;-78
2023/10/10 10:47:39;;;;;;;8.20;4.65;;;;;;;24.52;43.58;99950.28;5094513;28;20433;-79
2023/10/10 10:50:17;;;;;;;8.00;4.90;;;;;;;24.54;43.38;99953.66;5094003;28;20028;-78
2023/10/10 10:52:48;;;;;;;6.60;4.70;;;;;;;24.54;43.60;99951.00;5094439;28;20035;-79
2023/10/10 10:55:41;;;;;;;8.88;5.07;;;;;;;24.55;43.53;99942.03;5093939;28;20031;-78
2023/10/10 10:58:20;;;;;;;9.70;5.32;;;;;;;24.58;43.63;99939.19;5094351;28;20059;-79
2023/10/10 11:03:34;;;;;;;7.82;5.05;;;;;;;24.61;43.51;99935.44;5094004;28;20048;-79
2023/10/10 11:06:00;;;;;;;;;;;;;;;24.62;43.55;99939.81;5094338;28;20107;-78
2023/10/10 11:11:23;;;;;;;8.20;4.65;;;;;;;24.66;43.56;99930.66;5093923;28;20075;-78
2023/10/10 11:13:59;;;;;;;6.82;4.53;;;;;;;24.67;43.70;99933.22;5093739;28;20023;-80
2023/10/10 11:16:37;;;;;;;6.60;4.63;;;;;;;24.69;43.51;99929.59;5093889;28;20024;-80
2023/10/10 11:21:48;;;;;;;7.47;4.70;;;;;;;24.71;43.64;99919.63;5093789;28;20396;-78
2023/10/10 11:24:15;;;;;;;7.30;4.90;;;;;;;24.72;43.63;99913.34;5093256;28;20133;-80
2023/10/10 11:26:43;;;;;;;7.45;4.70;;;;;;;24.74;43.43;99914.94;5093610;28;20012;-78
2023/10/10 11:29:27;;;;;;;6.82;4.53;;;;;;;24.75;43.62;99908.63;5093369;28;20061;-80
2023/10/10 11:32:11;;;;;;;8.90;4.85;;;;;;;24.77;43.63;99905.88;5093648;28;20028;-79
2023/10/10 11:34:47;;;;;;;7.80;5.07;;;;;;;24.77;43.68;99896.06;5093612;28;20024;-79
2023/10/10 11:37:23;;;;;;;7.88;4.38;;;;;;;24.80;43.56;99895.00;5093297;28;20035;-79
2023/10/10 11:39:53;;;;;;;;;;;;;;;24.82;43.58;99892.22;5091806;28;20070;-79
2023/10/10 11:42:33;;;;;;;7.20;5.05;;;;;;;24.82;43.56;99893.09;5093253;28;19962;-79
2023/10/10 11:45:17;;;;;;;6.75;4.53;;;;;;;24.85;43.41;99889.34;5073032;28;20496;-79
2023/10/10 11:47:44;;;;;;;8.23;4.90;;;;;;;24.85;43.39;99879.53;5082589;28;20036;-79
2023/10/10 11:50:15;;;;;;;7.38;4.75;;;;;;;24.86;43.71;99872.38;5092897;28;20443;-79
2023/10/10 11:52:52;;;;;;;7.07;4.22;;;;;;;24.88;43.54;99876.63;5093168;28;20024;-78
2023/10/10 11:55:36;;;;;;;6.47;4.18;;;;;;;24.90;43.56;99868.53;5093028;28;20051;-80
2023/10/10 11:58:07;;;;;;;6.18;4.13;;;;;;;24.90;43.55;99864.03;5091584;28;20384;-80
2023/10/10 12:00:42;;;;;;;7.20;4.53;;;;;;;24.92;43.48;99858.59;5092917;28;20040;-79
2023/10/10 12:03:10;;;;;;;6.18;4.20;;;;;;;24.93;43.59;99855.81;5092663;28;20035;-79
2023/10/10 12:05:37;;;;;;;7.22;4.68;;;;;;;24.94;43.41;99849.50;5093019;28;20020;-78
2023/10/10 12:08:06;;;;;;;8.07;4.28;;;;;;;24.94;43.50;99846.84;5092523;28;20027;-78
2023/10/10 12:10:52;;;;;;;6.55;4.40;;;;;;;24.97;43.59;99848.44;5093059;28;20024;-79
2023/10/10 12:15:57;;;;;;;7.18;4.28;;;;;;;25.00;43.41;99839.34;5092790;28;20668;-78
2023/10/10 12:18:26;;;;;;;8.25;4.28;;;;;;;25.01;43.45;99831.25;5092896;28;20090;-80
2023/10/10 12:20:55;;;;;;;7.20;4.43;;;;;;;25.03;43.44;99834.63;5092641;28;20020;-80
2023/10/10 12:23:20;;;;;;;7.82;4.80;;;;;;;25.04;43.58;99822.16;5092098;28;20464;-79
2023/10/10 12:25:45;;;;;;;9.30;4.38;;;;;;;25.06;43.35;99825.56;5092698;28;20035;-79
2023/10/10 12:28:13;;;;;;;6.60;4.30;;;;;;;25.08;43.59;99826.28;5092484;28;20016;-78
2023/10/10 12:30:41;;;;;;;6.72;4.80;;;;;;;25.09;43.50;99811.13;5092648;28;20035;-79
2023/10/10 12:33:15;;;;;;;6.35;3.92;;;;;;;25.10;43.38;99818.19;5092374;28;20039;-79
2023/10/10 12:35:47;;;;;;;6.93;4.18;;;;;;;25.11;43.62;99815.41;5092692;28;20024;-79
2023/10/10 12:38:20;;;;;;;6.10;3.75;;;;;;;25.12;43.48;99803.75;5090518;28;20028;-79
2023/10/10 12:40:50;;;;;;;6.38;4.15;;;;;;;25.13;43.56;99794.78;5072304;28;20269;-79
2023/10/10 12:43:20;;;;;;;5.93;4.07;;;;;;;25.14;43.56;99801.81;5072206;28;20024;-79
2023/10/10 12:45:51;;;;;;;8.25;4.40;;;;;;;25.16;43.64;99797.22;5071999;28;20400;-79
2023/10/10 12:48:20;;;;;;;8.75;4.30;;;;;;;25.17;43.61;99801.59;5085132;28;20107;-80
2023/10/10 12:50:47;;;;;;;6.10;3.75;;;;;;;25.19;43.60;99797.00;5092029;28;20039;-78
2023/10/10 12:53:16;;;;;;;7.25;4.25;;;;;;;25.20;43.50;99789.84;5092372;28;20074;-81
2023/10/10 12:56:15;;;;;;;8.25;4.75;;;;;;;25.23;43.40;99799.44;5092360;28;20043;-79
2023/10/10 12:58:43;;;;;;;6.82;3.85;;;;;;;25.22;43.75;99787.91;5092185;28;20111;-79
2023/10/10 13:01:12;;;;;;;7.38;4.22;;;;;;;25.24;43.32;99779.78;5092153;28;20035;-80
2023/10/10 13:03:38;;;;;;;7.30;4.53;;;;;;;25.26;43.41;99780.50;5095765;28;20111;-78
2023/10/10 13:06:04;;;;;;;6.53;3.80;;;;;;;25.27;43.44;99771.56;5096013;28;20055;-79
2023/10/10 13:08:54;;;;;;;7.10;4.38;;;;;;;25.27;43.40;99774.22;5095067;28;20077;-80
2023/10/10 13:11:20;;;;;;;5.93;3.95;;;;;;;25.28;43.33;99773.25;5096200;28;20024;-79
2023/10/10 13:13:56;;;;;;;7.93;4.68;;;;;;;25.29;43.55;99769.63;5096454;28;20039;-79
2023/10/10 13:16:25;;;;;;;6.53;4.03;;;;;;;25.31;43.54;99775.69;5096343;28;20023;-80
2023/10/10 13:18:52;;;;;;;5.80;3.88;;;;;;;25.32;43.64;99766.69;5096121;28;20487;-79
2023/10/10 13:21:19;;;;;;;6.97;3.83;;;;;;;25.33;43.59;99757.75;5095680;28;20050;-79
2023/10/10 13:23:48;;;;;;;6.80;4.35;;;;;;;25.32;43.45;99762.22;5095953;28;20059;-79
2023/10/10 13:26:16;;;;;;;7.80;3.90;;;;;;;25.36;43.30;99757.50;5090273;28;20056;-78
2023/10/10 13:28:44;;;;;;;6.25;3.67;;;;;;;25.37;43.45;99753.03;5095796;28;20031;-79
2023/10/10 13:31:13;;;;;;;5.93;3.92;;;;;;;25.39;43.42;99756.41;5096030;28;20469;-79
2023/10/10 13:33:39;;;;;;;5.97;4.10;;;;;;;25.38;43.53;99755.56;5110645;28;20030;-79
2023/10/10 13:36:05;;;;;;;7.70;4.05;;;;;;;25.40;43.29;99753.63;5098013;28;20020;-79
2023/10/10 13:38:31;;;;;;;5.82;3.95;;;;;;;25.41;43.49;99755.34;5095394;28;20175;-79
2023/10/10 13:41:01;;;;;;;7.05;3.92;;;;;;;25.42;43.45;99750.84;5095852;28;20056;-81
2023/10/10 13:43:27;;;;;;;6.93;3.72;;;;;;;25.43;43.27;99752.56;5092227;28;20099;-81
2023/10/10 13:45:55;;;;;;;7.05;4.57;;;;;;;25.43;43.26;99745.38;5089685;28;20028;-83
2023/10/10 13:48:23;;;;;;;6.65;3.90;;;;;;;25.44;43.34;99749.78;5091814;28;20070;-81
2023/10/10 13:50:52;;;;;;;5.80;4.05;;;;;;;25.46;43.31;99746.97;5091111;28;20081;-82
2023/10/10 13:53:20;;;;;;;6.05;4.15;;;;;;;25.47;43.69;99744.19;5094807;28;20028;-81
2023/10/10 13:55:46;;;;;;;5.63;3.75;;;;;;;25.48;43.37;99737.88;5094748;28;20031;-81
2023/10/10 13:58:13;;;;;;;5.85;3.55;;;;;;;25.50;43.73;99739.56;5091735;28;20480;-81
2023/10/10 14:00:52;;;;;;;6.25;3.63;;;;;;;25.50;43.75;99739.56;5090363;28;20065;-80
2023/10/10 14:03:28;;;;;;;8.10;3.85;;;;;;;25.51;43.38;99738.63;5081972;28;20031;-80
2023/10/10 14:06:04;;;;;;;7.40;3.60;;;;;;;25.52;43.34;99735.81;5087838;28;20036;-81
2023/10/10 14:08:30;;;;;;;8.00;4.03;;;;;;;25.53;43.28;99732.22;5085643;28;20107;-81
2023/10/10 14:10:59;;;;;;;5.72;4.10;;;;;;;25.55;43.35;99729.41;5092922;28;20110;-81
2023/10/10 14:13:26;;;;;;;6.13;3.90;;;;;;;25.55;43.15;99724.94;5105391;28;20103;-82
2023/10/10 14:15:54;;;;;;;6.05;3.95;;;;;;;25.57;43.66;99728.31;5097614;28;20471;-81